createdAt,value
2022-08-07T00:00:14.310Z,1.50
2022-08-07T00:02:44.531Z,1.27
2022-08-07T00:05:11.644Z,1.77
2022-08-07T00:07:40.734Z,1.25
2022-08-07T00:10:27.249Z,1.30
2022-08-07T00:12:59.816Z,1.48
2022-08-07T00:15:36.049Z,1.50
2022-08-07T00:18:05.610Z,1.40
2022-08-07T00:20:34.502Z,1.40
2022-08-07T00:23:02.237Z,1.30
2022-08-07T00:25:28.713Z,1.77
2022-08-07T00:28:04.094Z,1.67
2022-08-07T00:30:31.529Z,1.52
2022-08-07T00:32:59.205Z,2.50
2022-08-07T00:35:26.400Z,1.55
2022-08-07T00:37:53.353Z,1.50
2022-08-07T00:40:39.624Z,1.60
2022-08-07T00:43:09.832Z,1.67
2022-08-07T00:45:54.418Z,1.90
2022-08-07T00:48:24.910Z,1.60
2022-08-07T00:50:57.671Z,1.70
2022-08-07T00:53:24.222Z,1.60
2022-08-07T00:56:02.582Z,2.10
2022-08-07T00:58:30.545Z,1.90
2022-08-07T01:00:57.819Z,1.80
2022-08-07T01:03:56.054Z,1.85
2022-08-07T01:06:12.334Z,1.90
2022-08-07T01:08:43.153Z,2.08
2022-08-07T01:12:23.671Z,2.15
2022-08-07T01:14:04.640Z,2.17
2022-08-07T01:16:31.465Z,1.73
2022-08-07T01:18:59.039Z,1.70
2022-08-07T01:21:26.997Z,1.92
2022-08-07T01:23:57.069Z,1.60
2022-08-07T01:26:26.086Z,1.77
2022-08-07T01:28:54.655Z,1.67
2022-08-07T01:31:41.821Z,1.70
2022-08-07T01:34:14.453Z,1.90
2022-08-07T01:36:44.067Z,1.73
2022-08-07T01:39:17.241Z,2.00
2022-08-07T01:42:07.197Z,1.70
2022-08-07T01:44:47.964Z,1.92
2022-08-07T01:48:17.891Z,1.88
2022-08-07T01:50:02.795Z,1.60
2022-08-07T01:52:31.522Z,1.73
2022-08-07T01:55:00.261Z,2.08
2022-08-07T01:58:01.622Z,1.90
2022-08-07T02:00:28.704Z,1.75
2022-08-07T02:03:18.471Z,2.10
2022-08-07T02:05:59.615Z,1.83
2022-08-07T02:08:27.899Z,1.80
2022-08-07T02:10:58.055Z,2.10
2022-08-07T02:13:58.167Z,1.83
2022-08-07T02:16:19.576Z,2.10
2022-08-07T02:18:48.357Z,2.10
2022-08-07T02:21:18.254Z,1.75
2022-08-07T02:23:46.022Z,1.83
2022-08-07T02:26:32.463Z,2.50
2022-08-07T02:29:00.884Z,2.20
2022-08-07T02:31:31.069Z,2.15
2022-08-07T02:34:03.650Z,1.90
2022-08-07T02:36:36.622Z,1.83
2022-08-07T02:39:17.382Z,2.05
2022-08-07T02:41:58.073Z,2.03
2022-08-07T02:44:34.486Z,2.00
2022-08-07T02:47:04.110Z,1.90
2022-08-07T02:49:55.928Z,1.90
2022-08-07T02:52:32.003Z,1.98
2022-08-07T02:55:01.087Z,2.20
2022-08-07T02:57:34.880Z,2.25
2022-08-07T03:02:34.875Z,1.65
2022-08-07T03:05:04.850Z,2.10
2022-08-07T03:08:05.368Z,2.03
2022-08-07T03:10:20.717Z,2.08
2022-08-07T03:12:51.979Z,1.97
2022-08-07T03:15:28.064Z,2.10
2022-08-07T03:18:08.683Z,2.40
2022-08-07T03:20:36.615Z,2.13
2022-08-07T03:23:03.535Z,2.00
2022-08-07T03:25:40.516Z,1.90
2022-08-07T03:28:37.707Z,1.95
2022-08-07T03:31:17.885Z,2.05
2022-08-07T03:33:47.672Z,2.30
2022-08-07T03:36:16.612Z,2.72
2022-08-07T03:38:45.492Z,2.35
2022-08-07T03:41:14.644Z,2.55
2022-08-07T03:43:44.059Z,2.38
2022-08-07T03:46:25.488Z,2.17
2022-08-07T03:49:03.119Z,2.20
2022-08-07T03:51:47.092Z,2.40
2022-08-07T03:54:35.152Z,2.45
2022-08-07T03:57:03.906Z,2.45
2022-08-07T03:59:34.669Z,2.47
2022-08-07T04:02:01.608Z,2.25
2022-08-07T04:04:28.286Z,2.17
2022-08-07T04:07:02.065Z,3.20
2022-08-07T04:09:50.310Z,1.98
2022-08-07T04:12:27.463Z,2.30
2022-08-07T04:14:57.313Z,2.28
2022-08-07T04:17:23.925Z,2.15
2022-08-07T04:20:11.716Z,2.00
2022-08-07T04:22:40.567Z,2.10
2022-08-07T04:28:00.318Z,2.08
2022-08-07T04:30:39.360Z,1.80
2022-08-07T04:33:19.274Z,1.98
2022-08-07T04:35:50.586Z,2.25
2022-08-07T04:38:21.980Z,2.35
2022-08-07T04:40:51.804Z,2.10
2022-08-07T04:43:22.089Z,1.90
2022-08-07T04:46:12.450Z,2.25
2022-08-07T04:49:02.233Z,2.58
2022-08-07T04:52:15.612Z,2.00
2022-08-07T04:54:55.244Z,2.17
2022-08-07T04:58:15.416Z,2.15
2022-08-07T05:00:30.227Z,2.22
2022-08-07T05:03:02.241Z,2.38
2022-08-07T05:05:57.320Z,2.42
2022-08-07T05:08:45.854Z,2.30
2022-08-07T05:11:24.286Z,2.17
2022-08-07T05:14:52.507Z,2.53
2022-08-07T05:16:43.867Z,2.22
2022-08-07T05:19:13.342Z,2.38
2022-08-07T05:21:58.970Z,2.92
2022-08-07T05:24:30.489Z,2.35
2022-08-07T05:27:08.177Z,2.63
2022-08-07T05:29:55.827Z,2.30
2022-08-07T05:32:26.360Z,2.55
2022-08-07T05:34:53.438Z,2.28
2022-08-07T05:37:26.182Z,2.25
2022-08-07T05:40:17.926Z,2.20
2022-08-07T05:42:55.715Z,2.10
2022-08-07T05:45:25.988Z,2.50
2022-08-07T05:48:11.062Z,2.25
2022-08-07T05:50:43.007Z,2.17
2022-08-07T05:54:08.551Z,2.20
2022-08-07T05:56:03.735Z,2.00
2022-08-07T05:58:37.411Z,2.63
2022-08-07T06:01:10.728Z,1.77
2022-08-07T06:03:53.834Z,2.05
2022-08-07T06:06:29.909Z,1.92
2022-08-07T06:09:04.552Z,1.98
2022-08-07T06:11:33.956Z,1.67
2022-08-07T06:14:11.852Z,2.17
2022-08-07T06:16:50.422Z,2.15
2022-08-07T06:19:51.982Z,2.10
2022-08-07T06:22:14.978Z,1.85
2022-08-07T06:24:58.428Z,1.88
2022-08-07T06:27:44.003Z,1.85
2022-08-07T06:30:32.478Z,1.92
2022-08-07T06:33:05.645Z,1.60
2022-08-07T06:35:47.639Z,1.80
2022-08-07T06:38:30.715Z,1.48
2022-08-07T06:40:59.810Z,1.60
2022-08-07T06:43:39.258Z,1.98
2022-08-07T06:46:12.341Z,1.30
2022-08-07T06:48:42.159Z,1.50
2022-08-07T06:51:15.424Z,1.80
2022-08-07T06:55:28.261Z,1.38
2022-08-07T06:56:48.426Z,1.42
2022-08-07T07:00:13.789Z,1.60
2022-08-07T07:02:54.444Z,1.50
2022-08-07T07:05:06.337Z,1.80
2022-08-07T07:07:59.690Z,1.98
2022-08-07T07:10:29.728Z,1.52
2022-08-07T07:13:02.414Z,1.75
2022-08-07T07:15:32.707Z,1.33
2022-08-07T07:18:47.487Z,1.52
2022-08-07T07:21:19.810Z,1.60
2022-08-07T07:24:08.822Z,1.50
2022-08-07T07:26:37.237Z,1.45
2022-08-07T07:29:56.608Z,1.60
2022-08-07T07:32:02.411Z,1.83
2022-08-07T07:34:32.053Z,1.60
2022-08-07T07:37:14.531Z,2.40
2022-08-07T07:39:55.271Z,1.92
2022-08-07T07:42:25.778Z,2.35
2022-08-07T07:45:01.081Z,1.50
2022-08-07T07:47:28.135Z,1.50
2022-08-07T07:50:35.668Z,1.55
2022-08-07T07:52:44.051Z,1.30
2022-08-07T07:55:14.365Z,1.13
2022-08-07T07:57:43.854Z,1.70
2022-08-07T08:00:20.916Z,2.05
2022-08-07T08:03:04.690Z,1.25
2022-08-07T08:05:42.759Z,1.20
2022-08-07T08:08:35.262Z,1.17
2022-08-07T08:11:08.121Z,1.20
2022-08-07T08:13:52.978Z,1.50
2022-08-07T08:16:25.199Z,1.00
2022-08-07T08:18:54.576Z,0.80
2022-08-07T08:21:56.928Z,1.05
2022-08-07T08:24:47.875Z,1.05
2022-08-07T08:27:40.733Z,0.73
2022-08-07T08:30:27.289Z,0.90
2022-08-07T08:32:54.438Z,0.93
2022-08-07T08:35:25.612Z,1.30
2022-08-07T08:38:04.517Z,0.80
2022-08-07T08:40:37.615Z,0.85
2022-08-07T08:43:42.986Z,0.85
2022-08-07T08:46:49.818Z,0.93
2022-08-07T08:49:33.297Z,0.75
2022-08-07T08:52:14.225Z,1.23
2022-08-07T08:54:56.587Z,0.98
2022-08-07T09:01:15.047Z,1.33
2022-08-07T09:11:25.046Z,1.45
2022-08-07T09:24:31.219Z,1.20
2022-08-07T09:31:13.680Z,1.10
2022-08-07T09:38:15.461Z,0.80
2022-08-07T09:46:29.037Z,1.40
2022-08-07T09:54:41.466Z,0.90
2022-08-07T09:57:46.637Z,0.90
2022-08-07T10:00:19.037Z,1.13
2022-08-07T10:03:08.173Z,1.10
2022-08-07T10:06:00.338Z,1.05
2022-08-07T10:09:23.656Z,1.02
2022-08-07T10:12:21.511Z,0.90
2022-08-07T10:14:55.605Z,1.70
2022-08-07T10:18:05.022Z,0.80
2022-08-07T10:20:44.468Z,1.10
2022-08-07T10:23:17.116Z,1.38
2022-08-07T10:26:24.897Z,1.00
2022-08-07T10:28:54.652Z,0.90
2022-08-07T10:31:40.006Z,0.85
2022-08-07T10:34:45.196Z,0.93
2022-08-07T10:37:59.934Z,1.20
2022-08-07T10:40:17.906Z,0.88
2022-08-07T10:43:06.483Z,1.20
2022-08-07T10:45:44.339Z,1.08
2022-08-07T10:48:21.356Z,1.17
2022-08-07T10:51:16.810Z,1.25
2022-08-07T10:54:06.821Z,0.80
2022-08-07T10:56:53.576Z,1.20
2022-08-07T10:59:25.866Z,1.40
2022-08-07T11:02:12.102Z,1.10
2022-08-07T11:05:10.697Z,1.00
2022-08-07T11:08:08.953Z,1.40
2022-08-07T11:14:44.915Z,1.10
2022-08-07T11:16:50.746Z,0.93
2022-08-07T11:23:12.669Z,0.73
2022-08-07T11:26:13.146Z,0.80
2022-08-07T11:30:18.515Z,0.90
2022-08-07T11:32:40.509Z,0.98
2022-08-07T11:35:59.514Z,0.88
2022-08-07T11:39:23.741Z,1.00
2022-08-07T11:42:29.481Z,0.70
2022-08-07T11:44:59.601Z,0.80
2022-08-07T11:47:55.867Z,0.90
2022-08-07T11:50:44.327Z,0.93
2022-08-07T11:53:35.142Z,1.05
2022-08-07T11:56:26.717Z,0.93
2022-08-07T12:00:08.245Z,0.90
2022-08-07T12:02:02.777Z,0.90
2022-08-07T12:04:45.932Z,1.00
2022-08-07T12:07:39.701Z,0.70
2022-08-07T12:10:15.394Z,1.00
2022-08-07T12:12:51.903Z,0.82
2022-08-07T12:15:58.034Z,0.98
2022-08-07T12:18:29.691Z,0.80
2022-08-07T12:21:15.937Z,0.95
2022-08-07T12:24:05.241Z,0.90
2022-08-07T12:26:49.314Z,0.80
2022-08-07T12:29:20.507Z,1.00
2022-08-07T12:32:12.091Z,1.00
2022-08-07T12:34:39.569Z,1.02
2022-08-07T12:37:16.847Z,0.90
2022-08-07T12:39:51.507Z,0.90
2022-08-07T12:42:27.297Z,0.70
2022-08-07T12:44:54.953Z,1.00
2022-08-07T12:47:43.966Z,0.77
2022-08-07T12:50:38.443Z,0.98
2022-08-07T12:53:27.520Z,1.05
2022-08-07T12:56:10.064Z,1.27
2022-08-07T12:58:39.299Z,1.10
2022-08-07T13:01:08.767Z,0.77
2022-08-07T13:04:03.199Z,1.90
2022-08-07T13:07:00.880Z,1.10
2022-08-07T13:10:20.078Z,0.80
2022-08-07T13:12:28.800Z,0.80
2022-08-07T13:15:02.993Z,1.10
2022-08-07T13:17:49.552Z,0.90
2022-08-07T13:20:27.698Z,0.95
2022-08-07T13:24:01.409Z,1.00
2022-08-07T13:26:05.341Z,0.93
2022-08-07T13:28:41.482Z,0.80
2022-08-07T13:31:32.040Z,0.80
2022-08-07T13:34:32.973Z,0.93
2022-08-07T13:36:54.457Z,0.90
2022-08-07T13:39:49.690Z,0.82
2022-08-07T13:42:14.713Z,0.60
2022-08-07T13:45:11.517Z,0.70
2022-08-07T13:48:06.017Z,0.73
2022-08-07T13:50:33.935Z,0.93
2022-08-07T13:53:02.399Z,0.93
2022-08-07T13:55:30.602Z,0.70
2022-08-07T13:58:27.895Z,0.70
2022-08-07T14:00:59.911Z,0.70
2022-08-07T14:04:07.774Z,1.00
2022-08-07T14:06:35.178Z,1.10
2022-08-07T14:09:04.724Z,0.60
2022-08-07T14:12:00.443Z,0.82
2022-08-07T14:14:24.068Z,0.90
2022-08-07T14:16:54.738Z,0.80
2022-08-07T14:20:39.414Z,0.70
2022-08-07T14:22:34.318Z,0.90
2022-08-07T14:25:11.713Z,1.08
2022-08-07T14:28:10.849Z,1.00
2022-08-07T14:30:33.089Z,1.20
2022-08-07T14:33:01.797Z,1.20
2022-08-07T14:35:43.350Z,1.10
2022-08-07T14:38:26.771Z,0.88
2022-08-07T14:41:04.035Z,1.00
2022-08-07T14:43:57.179Z,0.90
2022-08-07T14:46:20.941Z,1.45
2022-08-07T14:48:58.723Z,1.00
2022-08-07T14:52:04.724Z,1.05
2022-08-07T14:54:33.000Z,0.98
2022-08-07T14:57:02.107Z,1.40
2022-08-07T15:00:04.310Z,1.33
2022-08-07T15:05:20.417Z,1.00
2022-08-07T15:07:51.892Z,1.52
2022-08-07T15:10:26.084Z,1.30
2022-08-07T15:13:00.760Z,1.23
2022-08-07T15:15:38.662Z,0.80
2022-08-07T15:18:14.149Z,0.90
2022-08-07T15:20:58.248Z,1.20
2022-08-07T15:26:22.157Z,1.25
2022-08-07T15:28:55.569Z,1.20
2022-08-07T15:32:01.623Z,1.10
2022-08-07T15:34:14.821Z,1.13
2022-08-07T15:37:03.695Z,1.02
2022-08-07T15:39:56.653Z,1.20
2022-08-07T15:42:45.202Z,1.35
2022-08-07T15:45:23.081Z,1.33
2022-08-07T15:53:41.904Z,1.05
2022-08-07T15:56:21.221Z,1.00
2022-08-07T15:58:57.194Z,1.15
2022-08-07T16:01:38.810Z,1.30
2022-08-07T16:04:14.651Z,1.02
2022-08-07T16:06:52.032Z,0.88
2022-08-07T16:09:42.429Z,1.50
2022-08-07T16:12:11.994Z,1.13
2022-08-07T16:14:48.682Z,0.80
2022-08-07T16:18:02.639Z,0.82
2022-08-07T16:20:38.482Z,1.05
2022-08-07T16:23:53.830Z,1.10
2022-08-07T16:26:14.433Z,1.38
2022-08-07T16:30:05.664Z,1.00
2022-08-07T16:31:57.757Z,0.80
2022-08-07T16:34:39.512Z,1.00
2022-08-07T16:38:03.808Z,1.30
2022-08-07T16:40:28.323Z,0.90
2022-08-07T16:43:11.996Z,1.15
2022-08-07T16:46:47.476Z,1.30
2022-08-07T16:50:20.232Z,1.00
2022-08-07T16:52:49.324Z,1.20
2022-08-07T16:55:08.556Z,1.23
2022-08-07T16:58:01.752Z,1.77
2022-08-07T17:00:51.406Z,1.38
2022-08-07T17:03:58.529Z,1.67
2022-08-07T17:09:13.989Z,1.30
2022-08-07T17:12:03.934Z,1.13
2022-08-07T17:14:35.170Z,1.10
2022-08-07T17:17:04.481Z,2.30
2022-08-07T17:20:01.806Z,1.17
2022-08-07T17:22:30.155Z,1.08
2022-08-07T17:25:15.190Z,1.10
2022-08-07T17:27:58.432Z,1.00
2022-08-07T17:30:27.355Z,1.02
2022-08-07T17:34:08.818Z,1.00
2022-08-07T17:36:13.743Z,1.55
2022-08-07T17:39:10.418Z,0.90
2022-08-07T17:42:06.585Z,1.95
2022-08-07T17:44:50.192Z,1.48
2022-08-07T17:47:41.912Z,1.50
2022-08-07T17:50:19.452Z,1.33
2022-08-07T17:52:55.213Z,1.23
2022-08-07T17:56:00.479Z,1.40
2022-08-07T17:58:40.295Z,1.20
2022-08-07T18:01:48.756Z,1.25
2022-08-07T18:04:24.721Z,1.35
2022-08-07T18:07:20.397Z,1.30
2022-08-07T18:10:05.793Z,1.13
2022-08-07T18:12:52.878Z,1.20
2022-08-07T18:15:22.872Z,1.30
2022-08-07T18:18:47.543Z,1.40
2022-08-07T18:21:06.022Z,1.25
2022-08-07T18:23:43.350Z,1.00
2022-08-07T18:26:19.977Z,1.27
2022-08-07T18:28:59.913Z,1.70
2022-08-07T18:31:26.389Z,1.58
2022-08-07T18:34:36.982Z,1.20
2022-08-07T18:37:13.166Z,1.60
2022-08-07T18:40:06.483Z,1.45
2022-08-07T18:42:42.441Z,1.42
2022-08-07T18:45:44.771Z,1.20
2022-08-07T18:50:04.690Z,1.40
2022-08-07T18:51:16.763Z,1.40
2022-08-07T18:54:30.733Z,1.50
2022-08-07T18:57:30.665Z,1.50
2022-08-07T19:00:32.759Z,1.23
2022-08-07T19:03:12.145Z,1.65
2022-08-07T19:06:03.991Z,1.42
2022-08-07T19:08:46.250Z,1.70
2022-08-07T19:11:35.687Z,1.42
2022-08-07T19:14:38.745Z,1.42
2022-08-07T19:17:18.126Z,1.60
2022-08-07T19:22:38.303Z,1.45
2022-08-07T19:26:23.467Z,1.52
2022-08-07T19:28:30.744Z,1.38
2022-08-07T19:31:06.200Z,1.67
2022-08-07T19:33:39.070Z,1.60
2022-08-07T19:36:11.170Z,1.85
2022-08-07T19:38:52.746Z,1.73
2022-08-07T19:41:37.302Z,1.55
2022-08-07T19:44:21.141Z,2.05
2022-08-07T19:46:57.854Z,1.85
2022-08-07T19:49:57.192Z,2.03
2022-08-07T19:52:18.506Z,1.70
2022-08-07T19:54:56.337Z,1.60
2022-08-07T19:58:00.722Z,1.73
2022-08-07T20:00:12.192Z,1.73
2022-08-07T20:03:06.771Z,1.73
2022-08-07T20:06:00.365Z,1.65
2022-08-07T20:08:28.915Z,1.63
2022-08-07T20:11:03.592Z,1.75
2022-08-07T20:13:33.128Z,2.05
2022-08-07T20:16:01.192Z,2.13
2022-08-07T20:18:32.586Z,1.80
2022-08-07T20:21:02.170Z,2.00
2022-08-07T20:23:41.893Z,1.60
2022-08-07T20:26:10.554Z,1.52
2022-08-07T20:28:39.122Z,1.63
2022-08-07T20:31:09.944Z,2.17
2022-08-07T20:33:56.787Z,1.70
2022-08-07T20:36:25.224Z,1.80
2022-08-07T20:39:00.668Z,2.50
2022-08-07T20:41:38.095Z,2.10
2022-08-07T20:44:11.123Z,1.60
2022-08-07T20:46:44.395Z,2.08
2022-08-07T20:49:59.672Z,1.70
2022-08-07T20:51:58.879Z,1.90
2022-08-07T20:54:30.306Z,2.20
2022-08-07T20:57:03.686Z,1.92
2022-08-07T21:00:06.529Z,1.90
2022-08-07T21:02:39.428Z,1.90
2022-08-07T21:05:10.204Z,2.75
2022-08-07T21:07:43.448Z,2.30
2022-08-07T21:10:29.863Z,2.15
2022-08-07T21:12:59.582Z,2.42
2022-08-07T21:15:58.276Z,2.67
2022-08-07T21:18:20.453Z,2.10
2022-08-07T21:20:57.438Z,2.40
2022-08-07T21:23:50.103Z,2.22
2022-08-07T21:29:04.650Z,2.10
2022-08-07T21:32:47.656Z,2.25
2022-08-07T21:34:48.819Z,2.42
2022-08-07T21:37:21.818Z,2.40
2022-08-07T21:40:02.481Z,1.92
2022-08-07T21:42:51.051Z,2.47
2022-08-07T21:46:10.107Z,2.20
2022-08-07T21:48:33.612Z,2.50
2022-08-07T21:51:25.083Z,2.63
2022-08-07T21:53:53.997Z,2.42
2022-08-07T21:56:39.683Z,2.22
2022-08-07T21:59:27.690Z,2.35
2022-08-07T22:02:11.392Z,2.45
2022-08-07T22:04:53.914Z,2.00
2022-08-07T22:07:35.768Z,2.67
2022-08-07T22:10:11.664Z,2.28
2022-08-07T22:12:44.318Z,2.38
2022-08-07T22:16:39.867Z,2.63
2022-08-07T22:18:04.554Z,2.15
2022-08-07T22:20:46.544Z,2.10
2022-08-07T22:23:32.494Z,2.05
2022-08-07T22:26:05.873Z,2.65
2022-08-07T22:28:48.290Z,2.65
2022-08-07T22:31:45.503Z,2.33
2022-08-07T22:34:28.991Z,2.40
2022-08-07T22:36:55.636Z,2.28
2022-08-07T22:39:52.961Z,2.85
2022-08-07T22:42:26.044Z,2.67
2022-08-07T22:44:58.402Z,2.40
2022-08-07T22:47:52.173Z,2.65
2022-08-07T22:50:37.716Z,2.60
2022-08-07T22:53:05.457Z,2.67
2022-08-07T22:55:36.885Z,2.58
2022-08-07T22:58:27.985Z,3.13
2022-08-07T23:01:05.392Z,2.65
2022-08-07T23:03:58.967Z,2.70
2022-08-07T23:06:29.694Z,2.80
2022-08-07T23:10:01.022Z,2.40
2022-08-07T23:12:12.570Z,2.85
2022-08-07T23:16:04.536Z,2.90
2022-08-07T23:18:22.495Z,2.83
2022-08-07T23:21:11.235Z,2.70
2022-08-07T23:24:04.189Z,2.97
2022-08-07T23:26:56.268Z,2.90
2022-08-07T23:29:43.735Z,2.75
2022-08-07T23:34:21.805Z,2.80
2022-08-07T23:35:30.509Z,2.78
2022-08-07T23:38:08.635Z,2.50
2022-08-07T23:40:49.319Z,2.80
2022-08-07T23:43:43.217Z,3.03
2022-08-07T23:46:12.666Z,2.67
2022-08-07T23:48:53.328Z,3.10
2022-08-07T23:52:59.866Z,3.00
2022-08-07T23:54:46.171Z,2.90
2022-08-07T23:57:45.792Z,2.88
